Terminal Aerodrome Forecast
Issued by NWS

Home | Current Version | Previous Version | Text Only | Print | Product List | Glossary On
Versions: 1 2 3 4 5 6 7 8 9 10 11 12 13 14 15 16 17 18 19 20 21 22 23 24 25 26 27 28 29 30 31
555
FTUS41 KOKX 200831 AAA
TAFSWF
TAF AMD
KSWF 200831Z 2009/2112 02008KT P6SM BKN030 BKN100
     FM201400 35013G20KT P6SM SCT030 OVC250
     FM202200 35011KT P6SM FEW040 OVC250
     FM210100 35010KT P6SM OVC250
      AMD NOT SKED=

USA.gov is the U.S. government's official web portal to all federal, state and local government web resources and services.